Time;durP1;ratioP1;P1;durP2;ratioP2;P2;SDS_P1;SDS_P2;PMS_P1;PMS_P2;Temp;Humidity;BMP_temperature;BMP_pressure;BME280_temperature;BME280_humidity;BME280_pressure;Samples;Min_cycle;Max_cycle;Signal;HPM_P1;HPM_P2
2021/11/02 00:01:55;;;;;;;;;8.00;7.67;;;;;;;;5079908;27;45257;-70
2021/11/02 00:04:20;;;;;;;;;7.75;6.50;;;;;;;;5074676;27;45429;-70
2021/11/02 00:06:45;;;;;;;;;8.00;7.00;;;;;;;;5078381;27;45792;-70
2021/11/02 00:09:14;;;;;;;;;4.00;3.00;;;;;;;;5088511;27;45314;-70
2021/11/02 00:11:39;;;;;;;;;6.00;4.00;;;;;;;;5107999;27;45539;-69
2021/11/02 00:14:07;;;;;;;;;7.33;3.67;;;;;;;;5079196;27;45339;-70
2021/11/02 00:16:33;;;;;;;;;5.50;3.50;;;;;;;;5082138;27;46052;-70
2021/11/02 00:19:06;;;;;;;;;5.50;4.00;;;;;;;;5081322;27;45522;-69
2021/11/02 00:21:34;;;;;;;;;4.25;4.25;;;;;;;;5081817;27;45522;-69
2021/11/02 00:24:27;;;;;;;;;5.50;5.50;;;;;;;;5087244;27;45269;-70
2021/11/02 00:26:52;;;;;;;;;6.75;5.00;;;;;;;;5086130;27;46616;-70
2021/11/02 00:29:18;;;;;;;;;7.25;6.00;;;;;;;;5085376;27;45271;-70
2021/11/02 00:31:43;;;;;;;;;5.25;3.50;;;;;;;;5083139;27;46718;-69
2021/11/02 00:34:08;;;;;;;;;6.50;5.75;;;;;;;;5079076;27;45486;-70
2021/11/02 00:36:34;;;;;;;;;3.67;2.00;;;;;;;;5080405;27;46340;-70
2021/11/02 00:38:59;;;;;;;;;4.00;4.00;;;;;;;;5087137;27;45669;-69
2021/11/02 00:41:24;;;;;;;;;3.00;3.00;;;;;;;;5082228;27;45500;-70
2021/11/02 00:43:51;;;;;;;;;6.00;2.33;;;;;;;;5076855;27;45524;-70
2021/11/02 00:46:23;;;;;;;;;3.75;3.75;;;;;;;;5088705;27;45947;-69
2021/11/02 00:48:49;;;;;;;;;3.00;3.00;;;;;;;;5082162;27;45486;-69
2021/11/02 00:51:14;;;;;;;;;3.50;3.50;;;;;;;;5092786;27;45440;-70
2021/11/02 00:53:39;;;;;;;;;3.00;3.00;;;;;;;;5081708;27;45391;-69
2021/11/02 00:56:04;;;;;;;;;4.00;3.00;;;;;;;;5075778;27;47495;-70
2021/11/02 00:58:30;;;;;;;;;6.00;3.00;;;;;;;;5084182;27;45309;-70
2021/11/02 01:00:55;;;;;;;;;3.75;2.00;;;;;;;;5081659;27;45453;-70
2021/11/02 01:03:20;;;;;;;;;3.00;2.00;;;;;;;;5088145;27;45333;-70
2021/11/02 01:05:45;;;;;;;;;5.00;2.00;;;;;;;;5082821;27;45385;-69
2021/11/02 01:08:10;;;;;;;;;4.00;4.00;;;;;;;;5085388;27;45417;-70
2021/11/02 01:10:36;;;;;;;;;1.67;1.67;;;;;;;;5077431;27;45754;-69
2021/11/02 01:13:02;;;;;;;;;2.50;2.50;;;;;;;;5075841;27;45505;-70
2021/11/02 01:15:28;;;;;;;;;6.75;2.75;;;;;;;;5084673;27;45767;-70
2021/11/02 01:17:55;;;;;;;;;2.50;1.00;;;;;;;;5076926;27;45744;-70
2021/11/02 01:20:20;;;;;;;;;2.00;2.00;;;;;;;;5079412;27;45500;-70
2021/11/02 01:22:46;;;;;;;;;1.50;1.50;;;;;;;;5078427;27;45478;-70
2021/11/02 01:25:12;;;;;;;;;2.00;2.00;;;;;;;;5075855;27;47032;-70
2021/11/02 01:27:40;;;;;;;;;1.75;0.75;;;;;;;;5090439;27;45337;-69
2021/11/02 01:30:06;;;;;;;;;2.75;2.00;;;;;;;;5078258;27;45422;-70
2021/11/02 01:32:31;;;;;;;;;2.00;2.00;;;;;;;;5077174;27;45561;-70
2021/11/02 01:34:56;;;;;;;;;4.00;1.00;;;;;;;;5078632;27;46482;-69
2021/11/02 01:37:22;;;;;;;;;2.00;2.00;;;;;;;;5083526;27;45598;-70
2021/11/02 01:39:47;;;;;;;;;1.00;1.00;;;;;;;;5076638;27;45940;-70
2021/11/02 01:42:12;;;;;;;;;1.00;0.75;;;;;;;;5079840;27;45498;-69
2021/11/02 01:44:38;;;;;;;;;2.25;1.00;;;;;;;;5085222;27;47689;-70
2021/11/02 01:47:05;;;;;;;;;2.00;2.00;;;;;;;;5082913;27;45483;-69
2021/11/02 01:49:30;;;;;;;;;1.25;1.00;;;;;;;;5076058;27;45430;-70
2021/11/02 01:51:55;;;;;;;;;3.75;2.50;;;;;;;;5083767;27;45353;-69
2021/11/02 01:54:20;;;;;;;;;5.00;2.00;;;;;;;;5091772;27;46250;-69
2021/11/02 01:56:49;;;;;;;;;2.33;1.00;;;;;;;;5082804;27;45523;-70
2021/11/02 01:59:15;;;;;;;;;1.00;1.00;;;;;;;;5082891;27;45443;-70
2021/11/02 02:01:51;;;;;;;;;1.25;1.25;;;;;;;;5084266;27;45396;-70
2021/11/02 02:04:34;;;;;;;;;1.75;1.75;;;;;;;;5076715;27;45518;-70
2021/11/02 02:07:07;;;;;;;;;0.00;0.00;;;;;;;;5091276;27;45327;-70
2021/11/02 02:09:42;;;;;;;;;1.00;1.00;;;;;;;;5083925;27;45279;-69
2021/11/02 02:12:13;;;;;;;;;1.75;1.00;;;;;;;;5104623;27;45299;-69
2021/11/02 02:14:53;;;;;;;;;1.00;1.00;;;;;;;;5084816;27;45586;-70
2021/11/02 02:17:22;;;;;;;;;2.00;1.75;;;;;;;;5091781;27;45616;-69
2021/11/02 02:20:07;;;;;;;;;2.25;2.25;;;;;;;;5085450;27;45514;-69
2021/11/02 02:23:01;;;;;;;;;2.75;2.75;;;;;;;;5082914;27;45599;-69
2021/11/02 02:25:45;;;;;;;;;3.50;2.00;;;;;;;;5068152;27;46074;-70
2021/11/02 02:28:13;;;;;;;;;0.75;0.75;;;;;;;;5060675;27;45352;-70
2021/11/02 02:30:52;;;;;;;;;4.00;2.00;;;;;;;;5086931;27;45559;-70
2021/11/02 02:33:19;;;;;;;;;4.75;2.00;;;;;;;;5082012;27;45269;-69
2021/11/02 02:35:46;;;;;;;;;3.25;1.75;;;;;;;;5087696;27;46225;-70
2021/11/02 02:38:12;;;;;;;;;2.25;1.00;;;;;;;;5088496;27;45514;-69
2021/11/02 02:40:39;;;;;;;;;4.00;1.00;;;;;;;;5080809;27;45359;-70
2021/11/02 02:43:05;;;;;;;;;3.00;2.00;;;;;;;;5081934;27;45496;-70
2021/11/02 02:45:31;;;;;;;;;2.75;2.00;;;;;;;;5085706;27;45596;-69
2021/11/02 02:47:58;;;;;;;;;7.75;2.75;;;;;;;;5088664;27;45842;-70
2021/11/02 02:50:24;;;;;;;;;1.25;1.00;;;;;;;;5089824;27;46747;-70
2021/11/02 02:52:51;;;;;;;;;4.50;2.75;;;;;;;;5081984;27;45507;-70
2021/11/02 02:55:16;;;;;;;;;4.00;1.25;;;;;;;;5080012;27;45438;-70
2021/11/02 02:57:43;;;;;;;;;3.25;1.25;;;;;;;;5087982;27;45515;-69
2021/11/02 03:00:10;;;;;;;;;3.75;3.00;;;;;;;;5078554;27;47545;-70
2021/11/02 03:02:36;;;;;;;;;3.00;3.00;;;;;;;;5083182;27;45510;-69
2021/11/02 03:05:03;;;;;;;;;2.00;2.00;;;;;;;;5081282;27;45573;-70
2021/11/02 03:07:28;;;;;;;;;6.25;3.25;;;;;;;;5078193;27;45688;-70
2021/11/02 03:09:54;;;;;;;;;3.00;1.00;;;;;;;;5078990;27;45538;-70
2021/11/02 03:12:28;;;;;;;;;3.75;2.50;;;;;;;;5085727;27;45502;-69
2021/11/02 03:15:08;;;;;;;;;6.75;2.75;;;;;;;;5079494;27;45573;-69
2021/11/02 03:17:40;;;;;;;;;6.00;3.50;;;;;;;;5082493;27;45354;-69
2021/11/02 03:55:25;;;;;;;;;8.00;2.50;;;;;;;;5070978;27;45633;-70
2021/11/02 03:58:02;;;;;;;;;2.75;1.75;;;;;;;;5078829;27;45524;-70
2021/11/02 04:30:50;;;;;;;;;2.25;2.25;;;;;;;;5040368;28;46036;-70
2021/11/02 04:36:07;;;;;;;;;2.00;2.00;;;;;;;;5036883;28;45533;-70
2021/11/02 05:51:57;;;;;;;;;2.00;2.00;;;;;;;;4966930;28;45422;-70
2021/11/02 05:57:12;;;;;;;;;1.00;1.00;;;;;;;;5008748;28;46144;-70
2021/11/02 05:59:40;;;;;;;;;3.25;2.00;;;;;;;;5007689;28;45332;-70
2021/11/02 06:02:32;;;;;;;;;1.25;1.25;;;;;;;;5011768;28;45491;-70
2021/11/02 06:10:13;;;;;;;;;3.00;1.00;;;;;;;;5011207;28;46213;-70
2021/11/02 06:28:59;;;;;;;;;1.75;1.25;;;;;;;;5059447;27;45829;-70
2021/11/02 06:31:31;;;;;;;;;2.75;2.00;;;;;;;;5078254;27;45765;-70
2021/11/02 06:34:10;;;;;;;;;1.25;1.25;;;;;;;;5079399;27;45295;-70
2021/11/02 06:42:05;;;;;;;;;1.00;1.00;;;;;;;;5076021;27;45630;-70
2021/11/02 07:19:19;;;;;;;;;0.50;0.50;;;;;;;;5076019;27;45554;-71
2021/11/02 07:24:27;;;;;;;;;2.00;1.00;;;;;;;;5079733;27;45334;-70
2021/11/02 08:47:42;;;;;;;;;1.00;0.50;;;;;;;;5064918;27;45579;-69
2021/11/02 08:50:08;;;;;;;;;0.50;0.50;;;;;;;;5065849;27;45833;-70
2021/11/02 08:52:34;;;;;;;;;2.00;2.00;;;;;;;;5069915;27;45411;-70
2021/11/02 08:55:00;;;;;;;;;1.00;1.00;;;;;;;;5067326;27;45530;-70
2021/11/02 08:57:27;;;;;;;;;1.25;1.25;;;;;;;;5071135;27;45710;-70
2021/11/02 08:59:53;;;;;;;;;1.00;1.00;;;;;;;;5064557;27;46092;-70
2021/11/02 09:02:29;;;;;;;;;1.00;1.00;;;;;;;;5068751;27;45477;-70
2021/11/02 09:05:02;;;;;;;;;1.00;1.00;;;;;;;;5069418;27;45452;-69
2021/11/02 09:07:27;;;;;;;;;0.50;0.25;;;;;;;;5070770;27;45712;-69
2021/11/02 09:09:53;;;;;;;;;1.00;1.00;;;;;;;;5067029;27;45487;-69
2021/11/02 09:12:19;;;;;;;;;0.75;0.50;;;;;;;;5072131;27;45491;-69
2021/11/02 09:14:45;;;;;;;;;0.25;0.25;;;;;;;;5079792;27;45536;-71
2021/11/02 09:17:12;;;;;;;;;1.75;0.75;;;;;;;;5064473;27;45507;-69
2021/11/02 09:19:37;;;;;;;;;1.00;1.00;;;;;;;;5068720;27;45527;-69
2021/11/02 09:22:07;;;;;;;;;1.33;0.00;;;;;;;;5080120;27;45481;-70
2021/11/02 09:24:35;;;;;;;;;1.00;1.00;;;;;;;;5077245;27;45459;-70
2021/11/02 09:27:02;;;;;;;;;3.00;2.00;;;;;;;;5073071;27;45628;-70
2021/11/02 09:29:27;;;;;;;;;0.50;0.50;;;;;;;;5069122;27;45487;-69
2021/11/02 09:31:53;;;;;;;;;1.00;1.00;;;;;;;;5073645;27;45308;-70
2021/11/02 09:34:18;;;;;;;;;0.00;0.00;;;;;;;;5080944;27;46771;-69
2021/11/02 09:36:52;;;;;;;;;0.00;0.00;;;;;;;;5077776;27;45441;-69
2021/11/02 09:39:18;;;;;;;;;0.75;0.00;;;;;;;;5067544;27;46746;-70
2021/11/02 09:42:11;;;;;;;;;2.00;0.00;;;;;;;;5066716;27;45681;-70
2021/11/02 09:44:56;;;;;;;;;0.00;0.00;;;;;;;;5066170;27;45933;-70
2021/11/02 09:47:23;;;;;;;;;1.00;0.00;;;;;;;;5072121;27;45576;-70
2021/11/02 09:49:57;;;;;;;;;1.25;1.00;;;;;;;;5071997;27;46211;-70
2021/11/02 09:52:40;;;;;;;;;16.75;14.00;;;;;;;;5069113;27;45537;-70
2021/11/02 09:55:19;;;;;;;;;2.25;1.75;;;;;;;;5058876;27;45572;-69
2021/11/02 09:58:02;;;;;;;;;0.75;0.75;;;;;;;;5061976;27;45505;-70
2021/11/02 10:00:37;;;;;;;;;0.00;0.00;;;;;;;;5072734;27;45555;-71
2021/11/02 10:03:21;;;;;;;;;1.00;1.00;;;;;;;;5066834;27;45536;-70
2021/11/02 10:05:59;;;;;;;;;0.00;0.00;;;;;;;;5065140;27;45809;-71
2021/11/02 10:08:32;;;;;;;;;1.25;1.00;;;;;;;;5071639;27;45585;-70
2021/11/02 10:11:02;;;;;;;;;1.25;0.50;;;;;;;;5054210;27;47159;-70
2021/11/02 10:13:31;;;;;;;;;10.50;8.50;;;;;;;;5067696;27;45486;-70
2021/11/02 10:16:03;;;;;;;;;0.75;0.75;;;;;;;;5066708;28;45653;-70
2021/11/02 10:18:40;;;;;;;;;0.50;0.50;;;;;;;;5065180;27;45472;-70
2021/11/02 10:21:20;;;;;;;;;1.00;0.00;;;;;;;;5064209;27;45507;-70
2021/11/02 10:24:04;;;;;;;;;0.75;0.00;;;;;;;;5072653;27;45487;-70
2021/11/02 10:26:35;;;;;;;;;1.25;0.25;;;;;;;;5069859;27;46625;-70
2021/11/02 10:29:04;;;;;;;;;0.25;0.25;;;;;;;;5072582;27;45409;-69
2021/11/02 10:31:34;;;;;;;;;1.00;1.00;;;;;;;;5069603;27;47337;-69
2021/11/02 10:34:09;;;;;;;;;0.00;0.00;;;;;;;;5071787;27;45432;-71
2021/11/02 10:36:54;;;;;;;;;0.00;0.00;;;;;;;;5069473;27;45500;-72
2021/11/02 10:39:25;;;;;;;;;1.25;1.25;;;;;;;;5033935;28;45470;-70
2021/11/02 10:42:13;;;;;;;;;1.00;1.00;;;;;;;;5029407;28;46267;-70
2021/11/02 10:44:46;;;;;;;;;1.00;1.00;;;;;;;;5026784;28;45608;-69
2021/11/02 10:47:32;;;;;;;;;1.25;1.00;;;;;;;;5026999;28;45778;-71
2021/11/02 10:50:03;;;;;;;;;3.75;0.50;;;;;;;;5025502;28;46648;-73
2021/11/02 10:52:31;;;;;;;;;1.50;1.50;;;;;;;;5030242;28;46383;-71
2021/11/02 10:55:11;;;;;;;;;4.00;4.00;;;;;;;;5035126;28;45520;-68
2021/11/02 10:57:58;;;;;;;;;4.00;2.00;;;;;;;;5047381;28;45474;-70
2021/11/02 11:00:23;;;;;;;;;2.75;1.00;;;;;;;;5045219;28;45833;-68
2021/11/02 11:02:53;;;;;;;;;3.00;1.00;;;;;;;;5032732;28;46248;-70
2021/11/02 11:05:18;;;;;;;;;1.00;1.00;;;;;;;;5039292;28;45684;-69
2021/11/02 11:07:45;;;;;;;;;1.00;1.00;;;;;;;;5029181;28;45519;-68
2021/11/02 11:10:12;;;;;;;;;0.75;0.75;;;;;;;;5035821;28;45567;-71
2021/11/02 11:12:54;;;;;;;;;1.00;1.00;;;;;;;;5030279;28;47113;-69
2021/11/02 11:15:20;;;;;;;;;0.00;0.00;;;;;;;;5042510;28;45826;-68
2021/11/02 11:17:48;;;;;;;;;0.00;0.00;;;;;;;;5075583;27;45489;-68
2021/11/02 11:20:14;;;;;;;;;0.00;0.00;;;;;;;;5060329;28;45635;-68
2021/11/02 11:22:41;;;;;;;;;0.00;0.00;;;;;;;;5059286;28;45465;-68
2021/11/02 11:25:16;;;;;;;;;1.00;1.00;;;;;;;;5053815;28;45874;-68
2021/11/02 11:28:01;;;;;;;;;2.00;2.00;;;;;;;;5052639;28;45373;-68
2021/11/02 11:30:28;;;;;;;;;3.00;1.00;;;;;;;;5041308;28;45498;-68
2021/11/02 11:32:54;;;;;;;;;3.00;1.25;;;;;;;;5041692;28;46328;-68
2021/11/02 11:35:20;;;;;;;;;1.50;1.00;;;;;;;;5041610;28;45472;-68
2021/11/02 11:37:47;;;;;;;;;4.00;1.00;;;;;;;;5041738;28;45371;-68
2021/11/02 11:40:18;;;;;;;;;0.75;0.75;;;;;;;;5044736;28;45395;-68
2021/11/02 11:42:45;;;;;;;;;2.00;1.00;;;;;;;;5059393;28;45368;-68
2021/11/02 11:45:12;;;;;;;;;1.75;0.25;;;;;;;;5059803;28;45810;-68
2021/11/02 11:47:37;;;;;;;;;1.00;1.00;;;;;;;;5059219;28;45593;-68
2021/11/02 11:50:32;;;;;;;;;1.00;1.00;;;;;;;;5059086;28;45554;-68
2021/11/02 11:53:03;;;;;;;;;2.00;2.00;;;;;;;;5049375;28;46631;-68
2021/11/02 11:55:33;;;;;;;;;1.00;0.50;;;;;;;;5057052;28;45433;-68
2021/11/02 11:58:20;;;;;;;;;3.75;1.75;;;;;;;;5056572;28;45886;-68
2021/11/02 12:00:51;;;;;;;;;3.00;2.00;;;;;;;;5069437;28;45437;-68
2021/11/02 12:03:23;;;;;;;;;1.75;1.75;;;;;;;;5060235;28;46323;-68
2021/11/02 12:05:56;;;;;;;;;1.50;1.50;;;;;;;;5058662;28;45854;-68
2021/11/02 12:08:23;;;;;;;;;1.00;1.00;;;;;;;;5058712;28;45393;-68
2021/11/02 12:10:50;;;;;;;;;1.00;1.00;;;;;;;;5063806;28;45440;-68
2021/11/02 12:13:17;;;;;;;;;1.25;1.25;;;;;;;;5054620;28;46703;-68
2021/11/02 12:15:46;;;;;;;;;2.00;2.00;;;;;;;;5059533;28;45406;-68
2021/11/02 12:18:14;;;;;;;;;2.00;2.00;;;;;;;;5063940;28;45562;-68
2021/11/02 12:20:41;;;;;;;;;3.00;1.25;;;;;;;;5110251;27;45441;-68
2021/11/02 12:23:18;;;;;;;;;3.50;1.00;;;;;;;;5111215;27;47016;-68
2021/11/02 12:25:51;;;;;;;;;1.00;1.00;;;;;;;;5076593;27;45587;-68
2021/11/02 12:28:34;;;;;;;;;0.50;0.25;;;;;;;;5075162;27;45412;-68
2021/11/02 12:31:00;;;;;;;;;1.00;0.75;;;;;;;;5075538;27;45456;-68
2021/11/02 12:33:26;;;;;;;;;1.25;1.00;;;;;;;;5080680;27;46501;-68
2021/11/02 12:35:53;;;;;;;;;1.50;1.50;;;;;;;;5078365;27;45215;-68
2021/11/02 12:38:31;;;;;;;;;2.00;1.00;;;;;;;;5076517;27;45805;-68
2021/11/02 12:40:56;;;;;;;;;0.25;0.25;;;;;;;;5077980;27;45810;-68
2021/11/02 12:43:22;;;;;;;;;0.00;0.00;;;;;;;;5075556;27;45487;-68
2021/11/02 12:45:47;;;;;;;;;1.00;1.00;;;;;;;;5078311;27;45711;-68
2021/11/02 12:48:13;;;;;;;;;0.00;0.00;;;;;;;;5079505;27;45442;-68
2021/11/02 12:50:39;;;;;;;;;0.75;0.75;;;;;;;;5078206;27;45644;-68
2021/11/02 12:53:05;;;;;;;;;0.00;0.00;;;;;;;;5078238;27;45357;-68
2021/11/02 12:55:31;;;;;;;;;0.00;0.00;;;;;;;;5075198;27;45692;-68
2021/11/02 12:58:13;;;;;;;;;0.00;0.00;;;;;;;;5076140;27;45344;-68
2021/11/02 13:00:44;;;;;;;;;1.00;1.00;;;;;;;;5088004;27;45441;-68
2021/11/02 13:03:17;;;;;;;;;0.50;0.50;;;;;;;;5077189;27;46557;-68
2021/11/02 13:05:53;;;;;;;;;0.50;0.00;;;;;;;;5078007;27;45536;-68
2021/11/02 13:08:19;;;;;;;;;0.00;0.00;;;;;;;;5077796;27;45555;-68
2021/11/02 13:10:45;;;;;;;;;0.00;0.00;;;;;;;;5077529;27;45389;-68
2021/11/02 13:13:12;;;;;;;;;0.00;0.00;;;;;;;;5073561;27;45452;-68
2021/11/02 13:15:49;;;;;;;;;0.75;0.00;;;;;;;;5091581;27;45501;-68
2021/11/02 13:18:33;;;;;;;;;0.75;0.00;;;;;;;;5079106;27;45725;-68
2021/11/02 13:21:20;;;;;;;;;0.00;0.00;;;;;;;;5078270;27;45427;-68
2021/11/02 13:23:47;;;;;;;;;0.00;0.00;;;;;;;;5077338;27;47865;-68
2021/11/02 13:26:16;;;;;;;;;0.50;0.00;;;;;;;;5077844;27;45636;-68
2021/11/02 13:28:41;;;;;;;;;0.00;0.00;;;;;;;;5077661;27;45509;-68
2021/11/02 13:31:07;;;;;;;;;2.25;0.25;;;;;;;;5073604;27;45468;-68
2021/11/02 13:33:33;;;;;;;;;0.00;0.00;;;;;;;;5079869;27;45859;-68
2021/11/02 13:35:58;;;;;;;;;0.00;0.00;;;;;;;;5075816;27;45472;-68
2021/11/02 13:38:25;;;;;;;;;0.00;0.00;;;;;;;;5075982;27;45460;-68
2021/11/02 13:40:51;;;;;;;;;0.00;0.00;;;;;;;;5077718;27;45413;-68
2021/11/02 13:43:28;;;;;;;;;0.00;0.00;;;;;;;;5074296;27;46420;-68
2021/11/02 13:45:54;;;;;;;;;0.00;0.00;;;;;;;;5075617;27;45834;-69
2021/11/02 13:48:19;;;;;;;;;0.00;0.00;;;;;;;;5080749;27;45491;-68
2021/11/02 13:50:45;;;;;;;;;0.50;0.50;;;;;;;;5081533;27;45526;-68
2021/11/02 13:53:10;;;;;;;;;0.00;0.00;;;;;;;;5080840;27;45560;-68
2021/11/02 13:55:36;;;;;;;;;0.00;0.00;;;;;;;;5078713;27;45457;-68
2021/11/02 13:58:01;;;;;;;;;1.00;0.00;;;;;;;;5077937;27;45989;-68
2021/11/02 14:00:26;;;;;;;;;0.67;0.33;;;;;;;;5083400;27;45484;-68
2021/11/02 14:02:52;;;;;;;;;0.00;0.00;;;;;;;;5080722;27;45860;-68
2021/11/02 14:05:18;;;;;;;;;0.00;0.00;;;;;;;;5081341;27;45406;-68
2021/11/02 14:07:44;;;;;;;;;2.50;1.00;;;;;;;;5079784;27;45414;-68
2021/11/02 14:10:10;;;;;;;;;1.00;0.00;;;;;;;;5060502;28;45445;-68
2021/11/02 14:12:45;;;;;;;;;1.00;0.00;;;;;;;;5082783;27;45438;-68
2021/11/02 14:15:10;;;;;;;;;2.00;0.50;;;;;;;;5080195;27;45869;-68
2021/11/02 14:17:36;;;;;;;;;0.00;0.00;;;;;;;;5079393;27;45307;-68
2021/11/02 14:20:02;;;;;;;;;2.25;0.00;;;;;;;;5080940;27;45540;-68
2021/11/02 14:22:52;;;;;;;;;0.00;0.00;;;;;;;;5078013;27;45567;-68
2021/11/02 14:25:17;;;;;;;;;0.25;0.25;;;;;;;;5062124;27;45591;-68
2021/11/02 14:27:44;;;;;;;;;1.33;0.67;;;;;;;;5081516;27;45410;-68
2021/11/02 14:30:20;;;;;;;;;0.00;0.00;;;;;;;;5079713;27;45526;-68
2021/11/02 14:32:46;;;;;;;;;3.00;1.50;;;;;;;;5080296;27;46678;-68
2021/11/02 14:35:12;;;;;;;;;0.25;0.00;;;;;;;;5078756;27;45757;-68
2021/11/02 14:37:50;;;;;;;;;1.00;1.00;;;;;;;;5079084;27;45504;-68
2021/11/02 14:40:24;;;;;;;;;3.00;1.00;;;;;;;;5061686;27;45515;-68
2021/11/02 14:42:50;;;;;;;;;1.00;1.00;;;;;;;;5079544;27;46580;-68
2021/11/02 14:45:19;;;;;;;;;1.00;1.00;;;;;;;;5081606;27;45672;-68
2021/11/02 14:47:45;;;;;;;;;0.50;0.50;;;;;;;;5080584;27;45486;-68
2021/11/02 14:50:29;;;;;;;;;0.25;0.25;;;;;;;;5079895;27;45470;-68
2021/11/02 14:53:07;;;;;;;;;0.25;0.25;;;;;;;;5078908;27;46504;-68
2021/11/02 14:55:53;;;;;;;;;1.75;1.00;;;;;;;;5077337;27;45735;-68
2021/11/02 14:58:39;;;;;;;;;0.75;0.75;;;;;;;;5061786;27;45550;-68
2021/11/02 15:01:10;;;;;;;;;3.00;1.00;;;;;;;;5075209;27;45577;-68
2021/11/02 15:03:36;;;;;;;;;1.75;0.75;;;;;;;;5082408;27;46535;-68
2021/11/02 15:06:04;;;;;;;;;5.75;1.00;;;;;;;;5077762;27;45305;-68
2021/11/02 15:08:31;;;;;;;;;1.50;1.00;;;;;;;;5076913;27;45495;-68
2021/11/02 15:10:58;;;;;;;;;2.00;2.00;;;;;;;;5079880;27;45450;-68
2021/11/02 15:13:24;;;;;;;;;0.75;0.00;;;;;;;;5075724;27;45509;-68
2021/11/02 15:15:49;;;;;;;;;1.00;1.00;;;;;;;;5078211;27;45362;-68
2021/11/02 15:18:14;;;;;;;;;0.00;0.00;;;;;;;;5080630;27;45571;-68
2021/11/02 15:20:40;;;;;;;;;5.00;1.00;;;;;;;;5082902;27;45436;-68
2021/11/02 15:23:05;;;;;;;;;1.00;0.75;;;;;;;;5088443;27;45315;-68
2021/11/02 15:25:30;;;;;;;;;1.00;1.00;;;;;;;;5078200;27;45373;-68
2021/11/02 15:28:00;;;;;;;;;2.00;1.00;;;;;;;;5077049;27;45576;-68
2021/11/02 15:30:25;;;;;;;;;0.00;0.00;;;;;;;;5080302;27;45337;-68
2021/11/02 15:32:51;;;;;;;;;2.25;1.75;;;;;;;;5077564;27;45558;-68
2021/11/02 15:35:23;;;;;;;;;2.00;1.25;;;;;;;;5078308;27;46017;-68
2021/11/02 15:37:52;;;;;;;;;1.00;1.00;;;;;;;;5078899;27;45501;-68
2021/11/02 15:40:19;;;;;;;;;1.50;1.50;;;;;;;;5075905;27;45635;-68
2021/11/02 15:42:48;;;;;;;;;1.75;1.00;;;;;;;;5079856;27;45552;-68
2021/11/02 15:45:21;;;;;;;;;3.00;1.00;;;;;;;;5080045;27;45436;-68
2021/11/02 15:47:49;;;;;;;;;2.00;1.00;;;;;;;;5079389;27;45437;-68
2021/11/02 15:50:16;;;;;;;;;0.00;0.00;;;;;;;;5079386;27;45538;-68
2021/11/02 15:52:41;;;;;;;;;0.00;0.00;;;;;;;;5077290;27;48190;-68
2021/11/02 15:55:11;;;;;;;;;1.33;1.00;;;;;;;;5073856;27;45475;-68
2021/11/02 15:57:55;;;;;;;;;3.00;1.50;;;;;;;;5081285;27;45240;-68
2021/11/02 16:00:36;;;;;;;;;1.00;1.00;;;;;;;;5081062;27;45452;-68
2021/11/02 16:03:02;;;;;;;;;1.75;1.75;;;;;;;;5078561;27;45684;-68
2021/11/02 16:05:28;;;;;;;;;1.00;1.00;;;;;;;;5079493;27;45598;-68
2021/11/02 16:07:55;;;;;;;;;1.25;1.25;;;;;;;;5078398;27;45423;-68
2021/11/02 16:10:25;;;;;;;;;4.50;1.25;;;;;;;;5073984;27;45394;-68
2021/11/02 16:12:51;;;;;;;;;3.00;1.75;;;;;;;;5077799;27;45662;-68
2021/11/02 16:15:20;;;;;;;;;1.00;1.00;;;;;;;;5078652;27;45431;-68
2021/11/02 16:17:50;;;;;;;;;3.00;1.25;;;;;;;;5078807;27;45223;-68
2021/11/02 16:20:19;;;;;;;;;1.50;1.00;;;;;;;;5079000;27;45541;-68
2021/11/02 16:22:45;;;;;;;;;3.50;3.00;;;;;;;;5078795;27;46656;-68
2021/11/02 16:25:11;;;;;;;;;2.50;2.50;;;;;;;;5074268;27;45314;-68
2021/11/02 16:27:37;;;;;;;;;4.00;4.00;;;;;;;;5081038;27;45605;-68
2021/11/02 16:30:14;;;;;;;;;3.75;3.75;;;;;;;;5078814;27;45567;-69
2021/11/02 16:32:39;;;;;;;;;5.00;1.25;;;;;;;;5076876;27;46433;-68
2021/11/02 16:35:05;;;;;;;;;5.75;3.50;;;;;;;;5078877;27;45399;-68
2021/11/02 16:37:37;;;;;;;;;8.00;4.00;;;;;;;;5074467;27;45425;-68
2021/11/02 16:40:21;;;;;;;;;5.00;4.25;;;;;;;;5074106;27;45354;-68
2021/11/02 16:42:55;;;;;;;;;9.75;5.00;;;;;;;;5088952;27;45534;-68
2021/11/02 16:45:21;;;;;;;;;6.25;4.50;;;;;;;;5075560;27;45707;-68
2021/11/02 16:47:52;;;;;;;;;9.25;8.00;;;;;;;;5073906;27;45255;-68
2021/11/02 16:50:17;;;;;;;;;9.00;6.25;;;;;;;;5076917;27;45455;-68
2021/11/02 16:52:42;;;;;;;;;8.33;8.33;;;;;;;;5076657;27;45467;-68
2021/11/02 16:55:12;;;;;;;;;10.00;9.00;;;;;;;;5073956;27;45458;-68
2021/11/02 16:57:37;;;;;;;;;5.50;5.50;;;;;;;;5091938;27;45436;-68
2021/11/02 17:00:11;;;;;;;;;8.00;6.00;;;;;;;;5078467;27;45447;-68
2021/11/02 17:02:44;;;;;;;;;9.50;5.75;;;;;;;;5076653;27;46482;-68
2021/11/02 17:05:22;;;;;;;;;12.25;5.50;;;;;;;;5078232;27;45861;-68
2021/11/02 17:07:52;;;;;;;;;7.50;5.75;;;;;;;;5078391;27;45445;-68
2021/11/02 17:10:24;;;;;;;;;9.50;7.75;;;;;;;;5073150;27;45382;-68
2021/11/02 17:12:58;;;;;;;;;10.50;8.50;;;;;;;;5085233;27;46956;-69
2021/11/02 17:15:25;;;;;;;;;7.50;7.00;;;;;;;;5080596;27;45804;-68
2021/11/02 17:17:51;;;;;;;;;6.00;5.00;;;;;;;;5077310;27;45558;-68
2021/11/02 17:20:16;;;;;;;;;6.25;5.50;;;;;;;;5071115;27;45759;-68
2021/11/02 17:22:42;;;;;;;;;10.25;9.00;;;;;;;;5068356;27;46016;-68
2021/11/02 17:25:07;;;;;;;;;11.00;8.75;;;;;;;;5069057;28;45467;-68
2021/11/02 17:27:33;;;;;;;;;10.00;8.75;;;;;;;;5073290;27;45763;-69
2021/11/02 17:29:58;;;;;;;;;6.75;5.00;;;;;;;;5069672;27;45736;-68
2021/11/02 17:32:23;;;;;;;;;12.67;12.67;;;;;;;;5068253;27;46353;-69
2021/11/02 17:34:49;;;;;;;;;27.50;21.00;;;;;;;;5065665;27;45384;-68
2021/11/02 17:37:14;;;;;;;;;30.50;25.00;;;;;;;;5057771;27;45529;-68
2021/11/02 17:39:39;;;;;;;;;32.00;26.67;;;;;;;;5070103;27;45595;-68
2021/11/02 17:42:06;;;;;;;;;45.25;38.00;;;;;;;;5060500;27;45619;-69
2021/11/02 17:44:35;;;;;;;;;29.50;24.00;;;;;;;;5063200;27;45945;-68
2021/11/02 17:47:00;;;;;;;;;34.50;27.25;;;;;;;;5062052;27;45642;-68
2021/11/02 17:49:26;;;;;;;;;23.75;18.50;;;;;;;;5053174;27;45631;-68
2021/11/02 17:51:51;;;;;;;;;25.25;19.75;;;;;;;;5064903;27;45878;-68
2021/11/02 17:54:19;;;;;;;;;18.25;14.25;;;;;;;;5065528;27;45465;-68
2021/11/02 17:56:45;;;;;;;;;17.75;15.75;;;;;;;;5055150;27;45454;-68
2021/11/02 17:59:10;;;;;;;;;25.00;20.50;;;;;;;;5066964;27;45508;-68
2021/11/02 18:01:36;;;;;;;;;20.50;16.00;;;;;;;;5067037;27;45724;-68
2021/11/02 18:04:02;;;;;;;;;19.75;17.50;;;;;;;;5055853;27;45558;-68
2021/11/02 18:06:28;;;;;;;;;19.25;17.50;;;;;;;;5065169;27;45495;-68
2021/11/02 18:08:53;;;;;;;;;18.00;16.25;;;;;;;;5065343;27;45955;-68
2021/11/02 18:11:19;;;;;;;;;18.00;12.00;;;;;;;;5056644;27;46761;-68
2021/11/02 18:13:44;;;;;;;;;19.00;14.50;;;;;;;;5055682;28;45511;-68
2021/11/02 18:16:10;;;;;;;;;17.50;12.75;;;;;;;;5052782;28;45486;-68
2021/11/02 18:18:40;;;;;;;;;13.00;12.25;;;;;;;;5068917;27;45565;-69
2021/11/02 18:21:08;;;;;;;;;17.25;11.75;;;;;;;;5055872;27;47377;-68
2021/11/02 18:23:34;;;;;;;;;16.00;14.75;;;;;;;;5054196;27;46006;-68
2021/11/02 18:26:00;;;;;;;;;16.50;14.50;;;;;;;;5063910;28;45462;-68
2021/11/02 18:28:25;;;;;;;;;15.00;12.00;;;;;;;;5065965;27;45682;-68
2021/11/02 18:30:50;;;;;;;;;14.00;12.33;;;;;;;;5068165;27;47969;-68
2021/11/02 18:33:16;;;;;;;;;26.75;21.25;;;;;;;;5061698;27;45481;-68
2021/11/02 18:35:41;;;;;;;;;26.50;20.25;;;;;;;;5075130;27;45591;-68
2021/11/02 18:38:07;;;;;;;;;26.75;21.25;;;;;;;;5083630;27;45568;-69
2021/11/02 18:40:35;;;;;;;;;33.50;29.25;;;;;;;;5070407;27;45477;-71
2021/11/02 18:43:00;;;;;;;;;56.50;38.25;;;;;;;;5081166;27;45421;-69
2021/11/02 18:45:27;;;;;;;;;25.50;24.75;;;;;;;;5064395;27;45250;-69
2021/11/02 18:47:52;;;;;;;;;38.25;31.00;;;;;;;;5072617;27;45370;-69
2021/11/02 18:50:18;;;;;;;;;38.25;34.25;;;;;;;;5073450;27;45566;-71
2021/11/02 18:52:44;;;;;;;;;41.00;33.75;;;;;;;;5073231;27;45527;-70
2021/11/02 18:55:10;;;;;;;;;36.00;30.50;;;;;;;;5072594;27;45542;-70
2021/11/02 18:57:36;;;;;;;;;38.25;32.25;;;;;;;;5077781;27;45699;-72
2021/11/02 19:00:06;;;;;;;;;41.00;35.75;;;;;;;;5071901;27;46168;-70
2021/11/02 19:02:31;;;;;;;;;50.00;38.25;;;;;;;;5067403;27;45503;-69
2021/11/02 19:04:57;;;;;;;;;47.75;37.00;;;;;;;;5071959;27;45696;-69
2021/11/02 19:07:22;;;;;;;;;38.00;31.33;;;;;;;;5070644;27;45524;-69
2021/11/02 19:09:47;;;;;;;;;25.00;23.67;;;;;;;;5087081;27;46294;-69
2021/11/02 19:12:15;;;;;;;;;28.33;23.00;;;;;;;;5061721;27;45482;-68
2021/11/02 19:14:40;;;;;;;;;25.25;21.75;;;;;;;;5070821;27;45698;-69
2021/11/02 19:17:05;;;;;;;;;22.00;21.75;;;;;;;;5074514;27;45472;-69
2021/11/02 19:19:31;;;;;;;;;15.67;15.67;;;;;;;;5068070;28;47167;-69
2021/11/02 19:21:56;;;;;;;;;19.67;15.33;;;;;;;;5061717;27;45556;-69
2021/11/02 19:24:21;;;;;;;;;17.75;17.00;;;;;;;;5073938;27;45729;-69
2021/11/02 19:26:46;;;;;;;;;25.00;17.25;;;;;;;;5071808;27;45521;-68
2021/11/02 19:29:12;;;;;;;;;21.00;15.33;;;;;;;;5066128;27;46512;-69
2021/11/02 19:31:37;;;;;;;;;21.50;20.00;;;;;;;;5066859;27;45451;-68
2021/11/02 19:34:03;;;;;;;;;23.50;18.50;;;;;;;;5056724;27;45359;-68
2021/11/02 19:36:29;;;;;;;;;24.25;22.00;;;;;;;;5078771;27;45536;-68
2021/11/02 19:38:54;;;;;;;;;25.25;23.00;;;;;;;;5069174;27;45438;-68
2021/11/02 19:41:19;;;;;;;;;25.67;22.67;;;;;;;;5068417;27;45491;-69